sensor_id;sensor_type;location;lat;lon;timestamp;P1;durP1;ratioP1;P2;durP2;ratioP2
79668;SDS011;69136;52.614;6.976;2023-09-08T00:00:48;7.70;;;5.75;;
79668;SDS011;69136;52.614;6.976;2023-09-08T00:03:32;8.57;;;6.22;;
79668;SDS011;69136;52.614;6.976;2023-09-08T00:06:16;9.38;;;5.70;;
79668;SDS011;69136;52.614;6.976;2023-09-08T00:09:00;11.45;;;5.65;;
79668;SDS011;69136;52.614;6.976;2023-09-08T00:11:46;7.63;;;5.53;;
79668;SDS011;69136;52.614;6.976;2023-09-08T00:14:30;6.00;;;5.32;;
79668;SDS011;69136;52.614;6.976;2023-09-08T00:17:14;7.90;;;5.18;;
79668;SDS011;69136;52.614;6.976;2023-09-08T00:19:58;5.18;;;4.65;;
79668;SDS011;69136;52.614;6.976;2023-09-08T00:22:42;5.72;;;5.15;;
79668;SDS011;69136;52.614;6.976;2023-09-08T00:25:25;6.47;;;5.30;;
79668;SDS011;69136;52.614;6.976;2023-09-08T00:28:09;7.45;;;5.40;;
79668;SDS011;69136;52.614;6.976;2023-09-08T00:30:53;5.35;;;4.85;;
79668;SDS011;69136;52.614;6.976;2023-09-08T00:33:37;7.00;;;5.05;;
79668;SDS011;69136;52.614;6.976;2023-09-08T00:36:21;5.90;;;5.10;;
79668;SDS011;69136;52.614;6.976;2023-09-08T00:39:06;8.10;;;5.45;;
79668;SDS011;69136;52.614;6.976;2023-09-08T00:41:50;6.47;;;5.10;;
79668;SDS011;69136;52.614;6.976;2023-09-08T00:44:34;6.40;;;5.10;;
79668;SDS011;69136;52.614;6.976;2023-09-08T00:47:18;6.05;;;5.45;;
79668;SDS011;69136;52.614;6.976;2023-09-08T00:50:05;7.18;;;6.03;;
79668;SDS011;69136;52.614;6.976;2023-09-08T00:52:50;6.65;;;5.70;;
79668;SDS011;69136;52.614;6.976;2023-09-08T00:55:35;7.20;;;5.05;;
79668;SDS011;69136;52.614;6.976;2023-09-08T00:58:20;7.38;;;5.00;;
79668;SDS011;69136;52.614;6.976;2023-09-08T01:01:04;6.63;;;5.50;;
79668;SDS011;69136;52.614;6.976;2023-09-08T01:03:49;8.75;;;4.70;;
79668;SDS011;69136;52.614;6.976;2023-09-08T01:06:33;6.38;;;4.82;;
79668;SDS011;69136;52.614;6.976;2023-09-08T01:09:18;7.10;;;4.95;;
79668;SDS011;69136;52.614;6.976;2023-09-08T01:12:04;8.18;;;5.70;;
79668;SDS011;69136;52.614;6.976;2023-09-08T01:14:49;5.75;;;5.15;;
79668;SDS011;69136;52.614;6.976;2023-09-08T01:17:34;8.32;;;5.00;;
79668;SDS011;69136;52.614;6.976;2023-09-08T01:20:20;5.85;;;4.45;;
79668;SDS011;69136;52.614;6.976;2023-09-08T01:23:28;6.38;;;5.15;;
79668;SDS011;69136;52.614;6.976;2023-09-08T01:26:17;8.45;;;5.25;;
79668;SDS011;69136;52.614;6.976;2023-09-08T01:29:06;7.85;;;5.03;;
79668;SDS011;69136;52.614;6.976;2023-09-08T01:31:50;8.43;;;6.05;;
79668;SDS011;69136;52.614;6.976;2023-09-08T01:34:36;6.75;;;5.60;;
79668;SDS011;69136;52.614;6.976;2023-09-08T01:37:23;6.53;;;5.13;;
79668;SDS011;69136;52.614;6.976;2023-09-08T01:40:08;6.43;;;5.35;;
79668;SDS011;69136;52.614;6.976;2023-09-08T01:42:54;7.93;;;6.07;;
79668;SDS011;69136;52.614;6.976;2023-09-08T01:45:38;7.90;;;5.70;;
79668;SDS011;69136;52.614;6.976;2023-09-08T01:48:22;6.75;;;5.70;;
79668;SDS011;69136;52.614;6.976;2023-09-08T01:51:06;7.43;;;5.70;;
79668;SDS011;69136;52.614;6.976;2023-09-08T01:53:50;6.90;;;5.85;;
79668;SDS011;69136;52.614;6.976;2023-09-08T01:56:34;7.32;;;4.75;;
79668;SDS011;69136;52.614;6.976;2023-09-08T01:59:19;6.90;;;5.57;;
79668;SDS011;69136;52.614;6.976;2023-09-08T02:02:03;5.63;;;4.70;;
79668;SDS011;69136;52.614;6.976;2023-09-08T02:04:47;5.82;;;5.22;;
79668;SDS011;69136;52.614;6.976;2023-09-08T02:07:31;6.63;;;5.05;;
79668;SDS011;69136;52.614;6.976;2023-09-08T02:10:16;6.60;;;5.63;;
79668;SDS011;69136;52.614;6.976;2023-09-08T02:13:00;8.55;;;5.25;;
79668;SDS011;69136;52.614;6.976;2023-09-08T02:15:44;10.65;;;5.72;;
79668;SDS011;69136;52.614;6.976;2023-09-08T02:18:28;9.85;;;6.00;;
79668;SDS011;69136;52.614;6.976;2023-09-08T02:21:12;6.72;;;5.45;;
79668;SDS011;69136;52.614;6.976;2023-09-08T02:23:56;7.35;;;5.65;;
79668;SDS011;69136;52.614;6.976;2023-09-08T02:26:41;8.63;;;5.50;;
79668;SDS011;69136;52.614;6.976;2023-09-08T02:29:25;7.07;;;5.35;;
79668;SDS011;69136;52.614;6.976;2023-09-08T02:32:10;6.18;;;5.10;;
79668;SDS011;69136;52.614;6.976;2023-09-08T02:34:54;7.18;;;5.25;;
79668;SDS011;69136;52.614;6.976;2023-09-08T02:37:39;6.30;;;4.97;;
79668;SDS011;69136;52.614;6.976;2023-09-08T02:40:24;7.30;;;4.85;;
79668;SDS011;69136;52.614;6.976;2023-09-08T02:43:09;6.55;;;5.47;;
79668;SDS011;69136;52.614;6.976;2023-09-08T02:45:53;9.10;;;5.43;;
79668;SDS011;69136;52.614;6.976;2023-09-08T02:48:37;6.68;;;5.22;;
79668;SDS011;69136;52.614;6.976;2023-09-08T02:51:21;5.82;;;5.03;;
79668;SDS011;69136;52.614;6.976;2023-09-08T02:54:06;9.57;;;6.05;;
79668;SDS011;69136;52.614;6.976;2023-09-08T02:56:50;6.60;;;5.78;;
79668;SDS011;69136;52.614;6.976;2023-09-08T02:59:36;8.93;;;5.60;;
79668;SDS011;69136;52.614;6.976;2023-09-08T03:02:20;8.80;;;5.28;;
79668;SDS011;69136;52.614;6.976;2023-09-08T03:05:05;5.97;;;5.20;;
79668;SDS011;69136;52.614;6.976;2023-09-08T03:07:50;6.85;;;4.88;;
79668;SDS011;69136;52.614;6.976;2023-09-08T03:10:34;6.18;;;5.13;;
79668;SDS011;69136;52.614;6.976;2023-09-08T03:13:18;7.25;;;5.20;;
79668;SDS011;69136;52.614;6.976;2023-09-08T03:16:03;8.75;;;6.15;;
79668;SDS011;69136;52.614;6.976;2023-09-08T03:18:50;7.25;;;5.28;;
79668;SDS011;69136;52.614;6.976;2023-09-08T03:21:35;6.65;;;5.70;;
79668;SDS011;69136;52.614;6.976;2023-09-08T03:24:19;6.57;;;5.38;;
79668;SDS011;69136;52.614;6.976;2023-09-08T03:27:03;9.02;;;6.28;;
79668;SDS011;69136;52.614;6.976;2023-09-08T03:29:47;7.30;;;5.47;;
79668;SDS011;69136;52.614;6.976;2023-09-08T03:32:32;6.50;;;5.03;;
79668;SDS011;69136;52.614;6.976;2023-09-08T03:35:16;6.15;;;5.07;;
79668;SDS011;69136;52.614;6.976;2023-09-08T03:38:01;8.43;;;6.05;;
79668;SDS011;69136;52.614;6.976;2023-09-08T03:40:45;7.97;;;5.65;;
79668;SDS011;69136;52.614;6.976;2023-09-08T03:43:29;7.90;;;5.68;;
79668;SDS011;69136;52.614;6.976;2023-09-08T03:46:13;8.30;;;5.68;;
79668;SDS011;69136;52.614;6.976;2023-09-08T03:48:57;11.38;;;6.35;;
79668;SDS011;69136;52.614;6.976;2023-09-08T03:51:44;8.15;;;5.40;;
79668;SDS011;69136;52.614;6.976;2023-09-08T03:54:28;6.30;;;5.35;;
79668;SDS011;69136;52.614;6.976;2023-09-08T03:57:13;8.10;;;5.65;;
79668;SDS011;69136;52.614;6.976;2023-09-08T03:59:56;9.68;;;5.20;;
79668;SDS011;69136;52.614;6.976;2023-09-08T04:02:40;7.65;;;5.72;;
79668;SDS011;69136;52.614;6.976;2023-09-08T04:05:24;6.72;;;4.72;;
79668;SDS011;69136;52.614;6.976;2023-09-08T04:08:08;6.43;;;5.10;;
79668;SDS011;69136;52.614;6.976;2023-09-08T04:10:53;6.82;;;5.45;;
79668;SDS011;69136;52.614;6.976;2023-09-08T04:13:37;8.52;;;5.80;;
79668;SDS011;69136;52.614;6.976;2023-09-08T04:16:22;6.03;;;5.20;;
79668;SDS011;69136;52.614;6.976;2023-09-08T04:19:06;6.35;;;5.30;;
79668;SDS011;69136;52.614;6.976;2023-09-08T04:21:51;9.43;;;5.43;;
79668;SDS011;69136;52.614;6.976;2023-09-08T04:24:35;9.57;;;6.80;;
79668;SDS011;69136;52.614;6.976;2023-09-08T04:27:20;8.63;;;6.38;;
79668;SDS011;69136;52.614;6.976;2023-09-08T04:30:05;7.85;;;6.13;;
79668;SDS011;69136;52.614;6.976;2023-09-08T04:32:50;8.25;;;6.70;;
79668;SDS011;69136;52.614;6.976;2023-09-08T04:35:35;10.75;;;7.68;;
79668;SDS011;69136;52.614;6.976;2023-09-08T04:38:19;9.50;;;6.60;;
79668;SDS011;69136;52.614;6.976;2023-09-08T04:41:03;10.20;;;7.10;;
79668;SDS011;69136;52.614;6.976;2023-09-08T04:43:47;8.77;;;6.60;;
79668;SDS011;69136;52.614;6.976;2023-09-08T04:46:31;7.95;;;5.88;;
79668;SDS011;69136;52.614;6.976;2023-09-08T04:49:16;5.93;;;5.32;;
79668;SDS011;69136;52.614;6.976;2023-09-08T04:52:00;10.30;;;7.22;;
79668;SDS011;69136;52.614;6.976;2023-09-08T04:54:46;9.15;;;7.70;;
79668;SDS011;69136;52.614;6.976;2023-09-08T04:57:30;8.20;;;6.00;;
79668;SDS011;69136;52.614;6.976;2023-09-08T05:00:16;9.15;;;6.88;;
79668;SDS011;69136;52.614;6.976;2023-09-08T05:03:01;7.28;;;6.03;;
79668;SDS011;69136;52.614;6.976;2023-09-08T05:05:45;6.95;;;5.38;;
79668;SDS011;69136;52.614;6.976;2023-09-08T05:08:30;6.35;;;5.10;;
79668;SDS011;69136;52.614;6.976;2023-09-08T05:11:15;6.60;;;5.22;;
79668;SDS011;69136;52.614;6.976;2023-09-08T05:13:59;7.55;;;5.90;;
79668;SDS011;69136;52.614;6.976;2023-09-08T05:16:44;7.57;;;6.07;;
79668;SDS011;69136;52.614;6.976;2023-09-08T05:19:37;9.27;;;6.60;;
79668;SDS011;69136;52.614;6.976;2023-09-08T05:22:21;7.82;;;6.40;;
79668;SDS011;69136;52.614;6.976;2023-09-08T05:25:05;8.73;;;5.72;;
79668;SDS011;69136;52.614;6.976;2023-09-08T05:27:50;7.38;;;5.70;;
79668;SDS011;69136;52.614;6.976;2023-09-08T05:30:34;7.47;;;6.10;;
79668;SDS011;69136;52.614;6.976;2023-09-08T05:33:19;9.23;;;6.72;;
79668;SDS011;69136;52.614;6.976;2023-09-08T05:36:04;7.82;;;6.00;;
79668;SDS011;69136;52.614;6.976;2023-09-08T05:38:48;8.88;;;5.82;;
79668;SDS011;69136;52.614;6.976;2023-09-08T05:41:33;8.10;;;5.70;;
79668;SDS011;69136;52.614;6.976;2023-09-08T05:44:18;8.35;;;5.75;;
79668;SDS011;69136;52.614;6.976;2023-09-08T05:47:03;8.77;;;6.22;;
79668;SDS011;69136;52.614;6.976;2023-09-08T05:49:48;7.63;;;6.10;;
79668;SDS011;69136;52.614;6.976;2023-09-08T05:52:32;8.77;;;6.47;;
79668;SDS011;69136;52.614;6.976;2023-09-08T05:55:17;9.88;;;7.57;;
79668;SDS011;69136;52.614;6.976;2023-09-08T05:58:01;8.93;;;7.25;;
79668;SDS011;69136;52.614;6.976;2023-09-08T06:00:46;9.73;;;6.93;;
79668;SDS011;69136;52.614;6.976;2023-09-08T06:03:31;11.75;;;8.35;;
79668;SDS011;69136;52.614;6.976;2023-09-08T06:06:15;12.77;;;8.65;;
79668;SDS011;69136;52.614;6.976;2023-09-08T06:09:00;12.57;;;8.70;;
79668;SDS011;69136;52.614;6.976;2023-09-08T06:11:45;13.52;;;8.30;;
79668;SDS011;69136;52.614;6.976;2023-09-08T06:14:30;12.10;;;9.00;;
79668;SDS011;69136;52.614;6.976;2023-09-08T06:17:14;12.35;;;9.60;;
79668;SDS011;69136;52.614;6.976;2023-09-08T06:19:59;17.08;;;11.07;;
79668;SDS011;69136;52.614;6.976;2023-09-08T06:22:44;15.73;;;10.52;;
79668;SDS011;69136;52.614;6.976;2023-09-08T06:25:29;14.13;;;10.00;;
79668;SDS011;69136;52.614;6.976;2023-09-08T06:28:13;14.02;;;9.85;;
79668;SDS011;69136;52.614;6.976;2023-09-08T06:30:58;16.42;;;11.10;;
79668;SDS011;69136;52.614;6.976;2023-09-08T06:33:43;16.75;;;10.68;;
79668;SDS011;69136;52.614;6.976;2023-09-08T06:36:27;12.63;;;9.75;;
79668;SDS011;69136;52.614;6.976;2023-09-08T06:39:12;12.95;;;9.77;;
79668;SDS011;69136;52.614;6.976;2023-09-08T06:41:57;14.30;;;10.27;;
79668;SDS011;69136;52.614;6.976;2023-09-08T06:44:41;12.25;;;9.43;;
79668;SDS011;69136;52.614;6.976;2023-09-08T06:47:25;13.07;;;9.48;;
79668;SDS011;69136;52.614;6.976;2023-09-08T06:50:09;12.18;;;9.77;;
79668;SDS011;69136;52.614;6.976;2023-09-08T06:52:54;11.52;;;9.20;;
79668;SDS011;69136;52.614;6.976;2023-09-08T06:55:38;14.07;;;9.20;;
79668;SDS011;69136;52.614;6.976;2023-09-08T06:58:23;11.85;;;9.55;;
79668;SDS011;69136;52.614;6.976;2023-09-08T07:01:07;11.27;;;8.50;;
79668;SDS011;69136;52.614;6.976;2023-09-08T07:03:51;11.18;;;8.63;;
79668;SDS011;69136;52.614;6.976;2023-09-08T07:06:36;12.38;;;9.18;;
79668;SDS011;69136;52.614;6.976;2023-09-08T07:09:22;14.30;;;8.57;;
79668;SDS011;69136;52.614;6.976;2023-09-08T07:12:06;10.20;;;8.70;;
79668;SDS011;69136;52.614;6.976;2023-09-08T07:14:51;10.30;;;7.80;;
79668;SDS011;69136;52.614;6.976;2023-09-08T07:17:35;9.60;;;7.70;;
79668;SDS011;69136;52.614;6.976;2023-09-08T07:20:21;8.73;;;7.72;;
79668;SDS011;69136;52.614;6.976;2023-09-08T07:23:06;10.13;;;7.85;;
79668;SDS011;69136;52.614;6.976;2023-09-08T07:25:50;8.52;;;7.20;;
79668;SDS011;69136;52.614;6.976;2023-09-08T07:28:39;10.18;;;7.78;;
79668;SDS011;69136;52.614;6.976;2023-09-08T07:31:28;10.70;;;7.95;;
79668;SDS011;69136;52.614;6.976;2023-09-08T07:34:12;9.13;;;7.82;;
79668;SDS011;69136;52.614;6.976;2023-09-08T07:36:56;10.82;;;8.40;;
79668;SDS011;69136;52.614;6.976;2023-09-08T07:39:41;10.20;;;8.45;;
79668;SDS011;69136;52.614;6.976;2023-09-08T07:42:26;10.38;;;8.25;;
79668;SDS011;69136;52.614;6.976;2023-09-08T07:45:11;9.68;;;7.95;;
79668;SDS011;69136;52.614;6.976;2023-09-08T07:47:55;11.52;;;7.72;;
79668;SDS011;69136;52.614;6.976;2023-09-08T07:50:41;12.20;;;8.38;;
79668;SDS011;69136;52.614;6.976;2023-09-08T07:53:28;8.90;;;7.80;;
79668;SDS011;69136;52.614;6.976;2023-09-08T07:56:12;12.85;;;8.10;;
79668;SDS011;69136;52.614;6.976;2023-09-08T07:58:56;10.18;;;7.90;;
79668;SDS011;69136;52.614;6.976;2023-09-08T08:01:40;10.45;;;6.47;;
79668;SDS011;69136;52.614;6.976;2023-09-08T08:04:24;8.38;;;6.43;;
79668;SDS011;69136;52.614;6.976;2023-09-08T08:07:08;11.25;;;7.05;;
79668;SDS011;69136;52.614;6.976;2023-09-08T08:09:52;9.63;;;7.30;;
79668;SDS011;69136;52.614;6.976;2023-09-08T08:12:38;8.38;;;6.63;;
79668;SDS011;69136;52.614;6.976;2023-09-08T08:15:33;7.57;;;6.20;;
79668;SDS011;69136;52.614;6.976;2023-09-08T08:18:21;8.15;;;6.32;;
79668;SDS011;69136;52.614;6.976;2023-09-08T08:21:05;7.22;;;5.78;;
79668;SDS011;69136;52.614;6.976;2023-09-08T08:23:50;10.15;;;6.43;;
79668;SDS011;69136;52.614;6.976;2023-09-08T08:26:34;8.07;;;6.03;;
79668;SDS011;69136;52.614;6.976;2023-09-08T08:29:18;10.05;;;5.95;;
79668;SDS011;69136;52.614;6.976;2023-09-08T08:32:03;8.70;;;6.32;;
79668;SDS011;69136;52.614;6.976;2023-09-08T08:34:47;9.00;;;6.32;;
79668;SDS011;69136;52.614;6.976;2023-09-08T08:37:31;7.93;;;6.28;;
79668;SDS011;69136;52.614;6.976;2023-09-08T08:40:15;9.38;;;6.50;;
79668;SDS011;69136;52.614;6.976;2023-09-08T08:42:59;7.28;;;5.70;;
79668;SDS011;69136;52.614;6.976;2023-09-08T08:45:44;7.07;;;5.75;;
79668;SDS011;69136;52.614;6.976;2023-09-08T08:48:29;7.80;;;6.20;;
79668;SDS011;69136;52.614;6.976;2023-09-08T08:51:14;6.00;;;5.35;;
79668;SDS011;69136;52.614;6.976;2023-09-08T08:54:00;7.43;;;5.78;;
79668;SDS011;69136;52.614;6.976;2023-09-08T08:56:48;7.80;;;5.63;;
79668;SDS011;69136;52.614;6.976;2023-09-08T08:59:32;11.13;;;5.38;;
79668;SDS011;69136;52.614;6.976;2023-09-08T09:02:17;6.32;;;5.30;;
79668;SDS011;69136;52.614;6.976;2023-09-08T09:05:02;5.93;;;5.07;;
79668;SDS011;69136;52.614;6.976;2023-09-08T09:07:47;7.63;;;5.95;;
79668;SDS011;69136;52.614;6.976;2023-09-08T09:10:31;6.07;;;5.03;;
79668;SDS011;69136;52.614;6.976;2023-09-08T09:13:15;5.88;;;5.28;;
79668;SDS011;69136;52.614;6.976;2023-09-08T09:15:59;6.22;;;5.10;;
79668;SDS011;69136;52.614;6.976;2023-09-08T09:21:43;6.30;;;5.65;;
79668;SDS011;69136;52.614;6.976;2023-09-08T09:24:35;7.90;;;5.38;;
79668;SDS011;69136;52.614;6.976;2023-09-08T09:27:22;6.78;;;5.40;;
79668;SDS011;69136;52.614;6.976;2023-09-08T09:30:06;6.80;;;5.80;;
79668;SDS011;69136;52.614;6.976;2023-09-08T09:33:00;5.38;;;4.55;;
79668;SDS011;69136;52.614;6.976;2023-09-08T09:35:53;6.43;;;4.80;;
79668;SDS011;69136;52.614;6.976;2023-09-08T09:38:38;5.75;;;4.78;;
79668;SDS011;69136;52.614;6.976;2023-09-08T09:41:22;360.63;;;84.45;;
79668;SDS011;69136;52.614;6.976;2023-09-08T09:44:20;280.08;;;75.40;;
79668;SDS011;69136;52.614;6.976;2023-09-08T09:47:04;76.78;;;24.48;;
79668;SDS011;69136;52.614;6.976;2023-09-08T09:49:49;36.25;;;11.02;;
79668;SDS011;69136;52.614;6.976;2023-09-08T09:52:33;6.22;;;4.72;;
79668;SDS011;69136;52.614;6.976;2023-09-08T09:55:22;57.40;;;18.90;;
79668;SDS011;69136;52.614;6.976;2023-09-08T09:58:08;6.25;;;4.65;;
79668;SDS011;69136;52.614;6.976;2023-09-08T10:00:54;16.58;;;8.00;;
79668;SDS011;69136;52.614;6.976;2023-09-08T10:03:38;11.60;;;6.43;;
79668;SDS011;69136;52.614;6.976;2023-09-08T10:06:23;9.52;;;5.13;;
79668;SDS011;69136;52.614;6.976;2023-09-08T10:09:07;11.60;;;6.57;;
79668;SDS011;69136;52.614;6.976;2023-09-08T10:12:03;6.97;;;5.07;;
79668;SDS011;69136;52.614;6.976;2023-09-08T10:14:48;7.68;;;4.68;;
79668;SDS011;69136;52.614;6.976;2023-09-08T10:17:35;7.18;;;4.53;;
79668;SDS011;69136;52.614;6.976;2023-09-08T10:20:22;7.28;;;4.82;;
79668;SDS011;69136;52.614;6.976;2023-09-08T10:23:07;5.32;;;4.30;;
79668;SDS011;69136;52.614;6.976;2023-09-08T10:28:41;6.15;;;4.45;;
79668;SDS011;69136;52.614;6.976;2023-09-08T10:31:26;6.32;;;4.72;;
79668;SDS011;69136;52.614;6.976;2023-09-08T10:34:10;4.88;;;4.18;;
79668;SDS011;69136;52.614;6.976;2023-09-08T10:36:55;5.10;;;4.47;;
79668;SDS011;69136;52.614;6.976;2023-09-08T10:39:39;5.95;;;4.32;;
79668;SDS011;69136;52.614;6.976;2023-09-08T10:42:25;6.93;;;4.45;;
79668;SDS011;69136;52.614;6.976;2023-09-08T10:45:14;4.60;;;4.10;;
79668;SDS011;69136;52.614;6.976;2023-09-08T10:48:00;5.82;;;4.10;;
79668;SDS011;69136;52.614;6.976;2023-09-08T10:50:44;6.28;;;4.43;;
79668;SDS011;69136;52.614;6.976;2023-09-08T10:53:29;5.05;;;4.40;;
79668;SDS011;69136;52.614;6.976;2023-09-08T10:56:14;6.03;;;4.22;;
79668;SDS011;69136;52.614;6.976;2023-09-08T10:58:58;5.15;;;4.15;;
79668;SDS011;69136;52.614;6.976;2023-09-08T11:01:43;4.85;;;4.13;;
79668;SDS011;69136;52.614;6.976;2023-09-08T11:04:27;4.88;;;4.28;;
79668;SDS011;69136;52.614;6.976;2023-09-08T11:07:11;5.30;;;4.07;;
79668;SDS011;69136;52.614;6.976;2023-09-08T11:09:55;6.97;;;4.00;;
79668;SDS011;69136;52.614;6.976;2023-09-08T11:12:39;5.00;;;4.20;;
79668;SDS011;69136;52.614;6.976;2023-09-08T11:15:23;6.50;;;4.13;;
79668;SDS011;69136;52.614;6.976;2023-09-08T11:18:06;7.97;;;4.03;;
79668;SDS011;69136;52.614;6.976;2023-09-08T11:20:51;6.45;;;4.07;;
79668;SDS011;69136;52.614;6.976;2023-09-08T11:23:36;7.97;;;4.50;;
79668;SDS011;69136;52.614;6.976;2023-09-08T11:26:21;6.10;;;4.78;;
79668;SDS011;69136;52.614;6.976;2023-09-08T11:29:05;5.82;;;4.28;;
79668;SDS011;69136;52.614;6.976;2023-09-08T11:31:51;6.50;;;4.32;;
79668;SDS011;69136;52.614;6.976;2023-09-08T11:34:36;5.38;;;4.38;;
79668;SDS011;69136;52.614;6.976;2023-09-08T11:37:21;5.07;;;4.03;;
79668;SDS011;69136;52.614;6.976;2023-09-08T11:40:06;7.65;;;4.03;;
79668;SDS011;69136;52.614;6.976;2023-09-08T11:42:56;5.30;;;3.95;;
79668;SDS011;69136;52.614;6.976;2023-09-08T11:45:40;6.75;;;4.47;;
79668;SDS011;69136;52.614;6.976;2023-09-08T11:48:26;6.72;;;4.10;;
79668;SDS011;69136;52.614;6.976;2023-09-08T11:51:11;4.57;;;4.07;;
79668;SDS011;69136;52.614;6.976;2023-09-08T11:53:55;6.43;;;4.47;;
79668;SDS011;69136;52.614;6.976;2023-09-08T11:56:39;5.68;;;4.30;;
79668;SDS011;69136;52.614;6.976;2023-09-08T11:59:24;4.90;;;3.90;;
79668;SDS011;69136;52.614;6.976;2023-09-08T12:02:09;3.92;;;3.55;;
79668;SDS011;69136;52.614;6.976;2023-09-08T12:04:53;4.63;;;3.78;;
79668;SDS011;69136;52.614;6.976;2023-09-08T12:07:38;6.05;;;3.92;;
79668;SDS011;69136;52.614;6.976;2023-09-08T12:10:23;5.47;;;3.83;;
79668;SDS011;69136;52.614;6.976;2023-09-08T12:13:08;4.90;;;3.55;;
79668;SDS011;69136;52.614;6.976;2023-09-08T12:15:53;4.78;;;3.47;;
79668;SDS011;69136;52.614;6.976;2023-09-08T12:18:38;4.75;;;3.63;;
79668;SDS011;69136;52.614;6.976;2023-09-08T12:21:23;4.45;;;3.38;;
79668;SDS011;69136;52.614;6.976;2023-09-08T12:24:07;4.95;;;3.83;;
79668;SDS011;69136;52.614;6.976;2023-09-08T12:26:51;4.53;;;3.63;;
79668;SDS011;69136;52.614;6.976;2023-09-08T12:29:34;5.65;;;3.70;;
79668;SDS011;69136;52.614;6.976;2023-09-08T12:32:18;5.68;;;4.00;;
79668;SDS011;69136;52.614;6.976;2023-09-08T12:35:03;4.43;;;3.40;;
79668;SDS011;69136;52.614;6.976;2023-09-08T12:38:01;4.30;;;3.78;;
79668;SDS011;69136;52.614;6.976;2023-09-08T12:40:49;4.72;;;3.92;;
79668;SDS011;69136;52.614;6.976;2023-09-08T12:43:33;5.40;;;4.15;;
79668;SDS011;69136;52.614;6.976;2023-09-08T12:46:17;4.55;;;3.97;;
79668;SDS011;69136;52.614;6.976;2023-09-08T12:49:02;4.72;;;4.22;;
79668;SDS011;69136;52.614;6.976;2023-09-08T12:51:46;5.50;;;4.15;;
79668;SDS011;69136;52.614;6.976;2023-09-08T12:54:30;10.85;;;4.20;;
79668;SDS011;69136;52.614;6.976;2023-09-08T12:57:14;4.63;;;3.60;;
79668;SDS011;69136;52.614;6.976;2023-09-08T12:59:58;5.47;;;3.83;;
79668;SDS011;69136;52.614;6.976;2023-09-08T13:02:43;6.43;;;4.10;;
79668;SDS011;69136;52.614;6.976;2023-09-08T13:05:28;4.80;;;4.05;;
79668;SDS011;69136;52.614;6.976;2023-09-08T13:08:11;5.97;;;4.53;;
79668;SDS011;69136;52.614;6.976;2023-09-08T13:10:58;6.07;;;4.18;;
79668;SDS011;69136;52.614;6.976;2023-09-08T13:13:43;4.75;;;3.90;;
79668;SDS011;69136;52.614;6.976;2023-09-08T13:16:27;5.38;;;3.92;;
79668;SDS011;69136;52.614;6.976;2023-09-08T13:19:12;5.85;;;3.60;;
79668;SDS011;69136;52.614;6.976;2023-09-08T13:21:56;4.10;;;3.50;;
79668;SDS011;69136;52.614;6.976;2023-09-08T13:24:40;4.53;;;3.42;;
79668;SDS011;69136;52.614;6.976;2023-09-08T13:27:25;4.30;;;3.90;;
79668;SDS011;69136;52.614;6.976;2023-09-08T13:30:09;6.30;;;3.47;;
79668;SDS011;69136;52.614;6.976;2023-09-08T13:32:54;5.32;;;4.20;;
79668;SDS011;69136;52.614;6.976;2023-09-08T13:35:39;5.32;;;4.00;;
79668;SDS011;69136;52.614;6.976;2023-09-08T13:38:24;6.05;;;3.75;;
79668;SDS011;69136;52.614;6.976;2023-09-08T13:41:08;6.97;;;4.03;;
79668;SDS011;69136;52.614;6.976;2023-09-08T13:43:52;5.55;;;3.80;;
79668;SDS011;69136;52.614;6.976;2023-09-08T13:46:37;5.05;;;3.80;;
79668;SDS011;69136;52.614;6.976;2023-09-08T13:49:21;4.75;;;3.90;;
79668;SDS011;69136;52.614;6.976;2023-09-08T13:52:08;5.13;;;3.60;;
79668;SDS011;69136;52.614;6.976;2023-09-08T13:54:52;5.35;;;4.47;;
79668;SDS011;69136;52.614;6.976;2023-09-08T13:57:36;4.70;;;3.53;;
79668;SDS011;69136;52.614;6.976;2023-09-08T14:00:20;5.90;;;3.90;;
79668;SDS011;69136;52.614;6.976;2023-09-08T14:03:05;3.97;;;3.60;;
79668;SDS011;69136;52.614;6.976;2023-09-08T14:05:49;5.50;;;3.65;;
79668;SDS011;69136;52.614;6.976;2023-09-08T14:08:33;5.07;;;3.70;;
79668;SDS011;69136;52.614;6.976;2023-09-08T14:11:17;3.90;;;3.50;;
79668;SDS011;69136;52.614;6.976;2023-09-08T14:14:02;4.80;;;4.25;;
79668;SDS011;69136;52.614;6.976;2023-09-08T14:16:47;6.72;;;3.97;;
79668;SDS011;69136;52.614;6.976;2023-09-08T14:19:31;4.57;;;3.83;;
79668;SDS011;69136;52.614;6.976;2023-09-08T14:22:15;6.43;;;3.55;;
79668;SDS011;69136;52.614;6.976;2023-09-08T14:24:59;5.40;;;3.78;;
79668;SDS011;69136;52.614;6.976;2023-09-08T14:27:43;5.93;;;4.10;;
79668;SDS011;69136;52.614;6.976;2023-09-08T14:30:26;5.43;;;3.97;;
79668;SDS011;69136;52.614;6.976;2023-09-08T14:33:10;5.47;;;3.95;;
79668;SDS011;69136;52.614;6.976;2023-09-08T14:35:55;5.75;;;4.32;;
79668;SDS011;69136;52.614;6.976;2023-09-08T14:38:39;6.85;;;3.97;;
79668;SDS011;69136;52.614;6.976;2023-09-08T14:41:23;5.63;;;3.75;;
79668;SDS011;69136;52.614;6.976;2023-09-08T14:44:07;4.72;;;4.03;;
79668;SDS011;69136;52.614;6.976;2023-09-08T14:46:51;4.60;;;3.95;;
79668;SDS011;69136;52.614;6.976;2023-09-08T14:49:35;4.75;;;3.78;;
79668;SDS011;69136;52.614;6.976;2023-09-08T14:52:19;4.80;;;4.22;;
79668;SDS011;69136;52.614;6.976;2023-09-08T14:55:04;5.63;;;3.90;;
79668;SDS011;69136;52.614;6.976;2023-09-08T14:57:48;4.40;;;3.85;;
79668;SDS011;69136;52.614;6.976;2023-09-08T15:00:32;3.90;;;3.50;;
79668;SDS011;69136;52.614;6.976;2023-09-08T15:03:16;5.55;;;3.90;;
79668;SDS011;69136;52.614;6.976;2023-09-08T15:06:01;4.63;;;3.50;;
79668;SDS011;69136;52.614;6.976;2023-09-08T15:08:45;5.00;;;4.05;;
79668;SDS011;69136;52.614;6.976;2023-09-08T15:11:30;6.75;;;3.95;;
79668;SDS011;69136;52.614;6.976;2023-09-08T15:14:14;4.75;;;3.85;;
79668;SDS011;69136;52.614;6.976;2023-09-08T15:16:58;4.82;;;3.70;;
79668;SDS011;69136;52.614;6.976;2023-09-08T15:19:42;4.68;;;3.67;;
79668;SDS011;69136;52.614;6.976;2023-09-08T15:22:26;6.97;;;3.45;;
79668;SDS011;69136;52.614;6.976;2023-09-08T15:25:10;6.95;;;4.10;;
79668;SDS011;69136;52.614;6.976;2023-09-08T15:27:54;5.13;;;3.90;;
79668;SDS011;69136;52.614;6.976;2023-09-08T15:30:38;4.00;;;3.60;;
79668;SDS011;69136;52.614;6.976;2023-09-08T15:33:22;4.32;;;3.70;;
79668;SDS011;69136;52.614;6.976;2023-09-08T15:36:07;5.57;;;4.00;;
79668;SDS011;69136;52.614;6.976;2023-09-08T15:38:51;5.15;;;4.10;;
79668;SDS011;69136;52.614;6.976;2023-09-08T15:41:35;8.40;;;3.80;;
79668;SDS011;69136;52.614;6.976;2023-09-08T15:44:19;5.78;;;3.78;;
79668;SDS011;69136;52.614;6.976;2023-09-08T15:47:03;5.15;;;3.67;;
79668;SDS011;69136;52.614;6.976;2023-09-08T15:49:48;4.50;;;3.97;;
79668;SDS011;69136;52.614;6.976;2023-09-08T15:52:32;5.35;;;4.20;;
79668;SDS011;69136;52.614;6.976;2023-09-08T15:55:16;4.97;;;4.15;;
79668;SDS011;69136;52.614;6.976;2023-09-08T15:58:00;5.78;;;4.15;;
79668;SDS011;69136;52.614;6.976;2023-09-08T16:00:44;4.53;;;4.03;;
79668;SDS011;69136;52.614;6.976;2023-09-08T16:03:27;5.85;;;4.30;;
79668;SDS011;69136;52.614;6.976;2023-09-08T16:06:11;5.20;;;4.13;;
79668;SDS011;69136;52.614;6.976;2023-09-08T16:08:56;5.07;;;4.18;;
79668;SDS011;69136;52.614;6.976;2023-09-08T16:11:40;8.70;;;4.50;;
79668;SDS011;69136;52.614;6.976;2023-09-08T16:14:24;6.20;;;4.43;;
79668;SDS011;69136;52.614;6.976;2023-09-08T16:17:08;6.75;;;4.60;;
79668;SDS011;69136;52.614;6.976;2023-09-08T16:19:52;4.90;;;4.40;;
79668;SDS011;69136;52.614;6.976;2023-09-08T16:22:36;5.32;;;4.80;;
79668;SDS011;69136;52.614;6.976;2023-09-08T16:25:20;6.70;;;4.30;;
79668;SDS011;69136;52.614;6.976;2023-09-08T16:28:04;4.57;;;4.03;;
79668;SDS011;69136;52.614;6.976;2023-09-08T16:30:48;5.93;;;4.40;;
79668;SDS011;69136;52.614;6.976;2023-09-08T16:33:33;5.10;;;4.60;;
79668;SDS011;69136;52.614;6.976;2023-09-08T16:36:17;5.18;;;4.53;;